Terminal Aerodrome Forecast
Issued by NWS Wilmington, OH

Current Version | Previous Version | Graphics & Text | Print | Product List | Glossary On
Versions: 1 2 3 4 5 6 7 8 9 10 11 12 13 14 15 16 17 18 19 20 21 22 23
000
FTUS41 KILN 232337
TAFCVG
TAF
KCVG 232337Z 2400/2506 19006KT P6SM FEW050 BKN250
     FM240100 14004KT P6SM BKN250
     FM240900 16004KT P6SM BKN070
     FM241400 19007KT P6SM SCT050 BKN100
     FM242100 20010KT P6SM VCTS BKN050CB
     FM250300 19008KT P6SM FEW070=

USA.gov is the U.S. government's official web portal to all federal, state and local government web resources and services.